createdAt,value
2018-03-16T19:33:35.146Z,2.10
2018-03-16T19:34:35.111Z,2.40
2018-03-16T19:36:27.987Z,2.50
2018-03-16T19:37:27.984Z,2.60
2018-03-16T19:39:20.884Z,2.50
2018-03-16T19:40:20.861Z,2.50
2018-03-16T19:42:13.745Z,2.50
2018-03-16T19:43:13.745Z,2.60
2018-03-16T19:45:06.655Z,2.90
2018-03-16T19:46:06.631Z,2.60
2018-03-16T19:47:59.521Z,2.90
2018-03-16T19:48:59.523Z,2.40
2018-03-16T19:50:52.430Z,2.60
2018-03-16T19:51:52.414Z,2.80
2018-03-16T19:53:45.321Z,2.50
2018-03-16T19:54:45.317Z,2.50
2018-03-16T19:55:45.310Z,2.50
2018-03-16T19:56:45.314Z,2.30
2018-03-16T19:57:45.324Z,2.80
2018-03-16T19:58:45.325Z,2.70
2018-03-16T19:59:45.326Z,2.80
2018-03-16T20:00:45.335Z,2.60
2018-03-16T20:01:45.340Z,2.50
2018-03-16T20:02:45.348Z,2.40
2018-03-16T20:03:45.356Z,2.50
2018-03-16T20:04:45.362Z,2.50
2018-03-16T20:05:45.363Z,2.40
2018-03-16T20:06:45.370Z,2.50
2018-03-16T20:07:45.375Z,2.60
2018-03-16T20:08:45.383Z,2.90
2018-03-16T20:09:45.388Z,2.90
2018-03-16T20:10:45.393Z,2.90
2018-03-16T20:11:45.400Z,3.10
2018-03-16T20:12:45.407Z,2.90
2018-03-16T20:13:45.411Z,2.90
2018-03-16T20:14:45.420Z,2.90
2018-03-16T20:15:45.425Z,3.00
2018-03-16T20:16:45.431Z,2.80
2018-03-16T20:17:45.443Z,2.90
2018-03-16T20:18:45.444Z,2.70
2018-03-16T20:19:45.457Z,2.80
2018-03-16T20:20:45.457Z,2.70
2018-03-16T20:21:45.464Z,3.10
2018-03-16T20:22:45.479Z,3.10
2018-03-16T20:23:45.478Z,3.00
2018-03-16T20:24:45.488Z,3.20
2018-03-16T20:25:45.491Z,2.90
2018-03-16T20:26:45.498Z,2.80
2018-03-16T20:27:45.504Z,2.90
2018-03-16T20:28:45.511Z,3.00
2018-03-16T20:29:45.518Z,2.80
2018-03-16T20:30:45.524Z,2.90
2018-03-16T20:31:45.532Z,2.70
2018-03-16T20:32:45.533Z,3.20
2018-03-16T20:33:45.545Z,2.80
2018-03-16T20:34:45.553Z,3.00
2018-03-16T20:35:45.560Z,3.00
2018-03-16T20:36:45.569Z,2.80
2018-03-16T20:37:45.573Z,2.90
2018-03-16T20:38:45.579Z,3.00
2018-03-16T20:39:45.588Z,3.00
2018-03-16T20:40:45.594Z,2.80
2018-03-16T20:41:45.601Z,3.10
2018-03-16T20:42:45.614Z,3.20
2018-03-16T20:43:45.617Z,3.00
2018-03-16T20:44:45.623Z,3.10
2018-03-16T20:45:45.628Z,3.30
2018-03-16T20:46:45.636Z,3.30
2018-03-16T20:47:45.644Z,3.20
2018-03-16T20:48:45.651Z,2.90
2018-03-16T20:49:45.658Z,3.10
2018-03-16T20:50:45.665Z,3.00
2018-03-16T20:51:45.673Z,3.30
2018-03-16T20:52:45.687Z,2.80
2018-03-16T20:53:45.685Z,2.80
2018-03-16T20:54:45.693Z,3.00
2018-03-16T20:55:45.701Z,3.00
2018-03-16T20:56:45.708Z,3.00
2018-03-16T20:57:45.716Z,2.80
2018-03-16T20:58:45.722Z,3.10
2018-03-16T20:59:45.733Z,2.60
2018-03-16T21:00:45.745Z,2.90
2018-03-16T21:01:45.743Z,3.10
2018-03-16T21:02:45.750Z,2.70
2018-03-16T21:03:45.759Z,2.70
2018-03-16T21:04:45.766Z,3.00
2018-03-16T21:05:45.772Z,2.70
2018-03-16T21:06:45.780Z,3.00
2018-03-16T21:07:45.786Z,2.70
2018-03-16T21:08:45.795Z,3.10
2018-03-16T21:09:45.802Z,3.00
2018-03-16T21:10:45.811Z,2.60
2018-03-16T21:11:45.816Z,2.90
2018-03-16T21:12:45.824Z,2.80
2018-03-16T21:13:45.830Z,3.00
2018-03-16T21:14:45.838Z,2.80
2018-03-16T21:15:45.845Z,3.00
2018-03-16T21:16:45.852Z,2.80
2018-03-16T21:17:45.859Z,2.90
2018-03-16T21:18:45.867Z,2.70
2018-03-16T21:19:45.873Z,3.00
2018-03-16T21:20:45.881Z,2.80
2018-03-16T21:21:45.888Z,2.50
2018-03-16T21:22:45.896Z,2.70
2018-03-16T21:23:45.903Z,2.80
2018-03-16T21:24:45.909Z,2.70
2018-03-16T21:25:45.917Z,2.70
2018-03-16T21:26:45.931Z,2.50
2018-03-16T21:27:45.931Z,2.60
2018-03-16T21:28:45.947Z,2.90
2018-03-16T21:29:45.947Z,2.70
2018-03-16T21:30:45.957Z,2.80
2018-03-16T21:31:45.960Z,2.70
2018-03-16T21:32:45.969Z,2.60
2018-03-16T21:33:45.978Z,3.00
2018-03-16T21:34:45.982Z,2.70
2018-03-16T21:35:45.990Z,2.90
2018-03-16T21:36:45.997Z,2.70
2018-03-16T21:37:46.005Z,2.60
2018-03-16T21:38:46.011Z,2.80
2018-03-16T21:39:46.019Z,2.70
2018-03-16T21:40:46.025Z,2.60
2018-03-16T21:41:46.033Z,2.50
2018-03-16T21:42:46.041Z,2.80
2018-03-16T21:43:46.049Z,2.80
2018-03-16T21:44:46.056Z,2.80
2018-03-16T21:45:46.065Z,2.70
2018-03-16T21:46:46.069Z,2.90
2018-03-16T21:47:46.077Z,2.60
2018-03-16T21:48:46.085Z,2.80
2018-03-16T21:49:46.091Z,2.50
2018-03-16T21:50:46.098Z,2.60
2018-03-16T21:51:46.107Z,2.70
2018-03-16T21:52:46.114Z,2.70
2018-03-16T21:53:46.120Z,2.70
2018-03-16T21:54:46.127Z,2.50
2018-03-16T21:55:46.135Z,2.60
2018-03-16T21:56:46.144Z,2.60
2018-03-16T21:57:46.150Z,2.70
2018-03-16T21:58:46.156Z,2.70
2018-03-16T21:59:46.165Z,2.80
2018-03-16T22:00:46.172Z,2.70
2018-03-16T22:01:46.178Z,2.50
2018-03-16T22:02:46.186Z,2.90
2018-03-16T22:03:46.193Z,2.70
2018-03-16T22:04:46.201Z,2.70
2018-03-16T22:05:46.206Z,2.40
2018-03-16T22:06:46.215Z,2.60
2018-03-16T22:07:46.222Z,2.50
2018-03-16T22:08:46.230Z,2.60
2018-03-16T22:09:46.237Z,2.60
2018-03-16T22:10:46.243Z,2.50
2018-03-16T22:11:46.251Z,2.80
2018-03-16T22:12:46.264Z,2.80
2018-03-16T22:13:46.268Z,2.60
2018-03-16T22:14:46.272Z,2.80
2018-03-16T22:15:46.281Z,2.70
2018-03-16T22:16:46.288Z,2.50
2018-03-16T22:17:46.293Z,2.50
2018-03-16T22:18:46.308Z,2.50
2018-03-16T22:19:46.310Z,2.60
2018-03-16T22:20:46.318Z,2.60
2018-03-16T22:21:46.322Z,2.40
2018-03-16T22:22:46.333Z,2.60
2018-03-16T22:23:46.337Z,2.50
2018-03-16T22:24:46.345Z,2.40
2018-03-16T22:25:46.351Z,2.80
2018-03-16T22:26:46.360Z,2.50
2018-03-16T22:27:46.366Z,2.60
2018-03-16T22:28:46.374Z,2.20
2018-03-16T22:29:46.380Z,2.50
2018-03-16T22:30:46.388Z,2.30
2018-03-16T22:31:46.396Z,2.40
2018-03-16T22:32:46.403Z,2.40
2018-03-16T22:33:46.410Z,2.40
2018-03-16T22:34:46.418Z,2.40
2018-03-16T22:35:46.424Z,2.20
2018-03-16T22:36:46.432Z,2.30
2018-03-16T22:37:46.439Z,2.40
2018-03-16T22:38:46.447Z,2.70
2018-03-16T22:39:46.453Z,2.20
2018-03-16T22:40:46.461Z,2.30
2018-03-16T22:41:46.467Z,2.50
2018-03-16T22:42:46.476Z,2.10
2018-03-16T22:43:46.482Z,2.10
2018-03-16T22:44:46.490Z,2.50
2018-03-16T22:45:46.497Z,2.60
2018-03-16T22:46:46.503Z,2.60
2018-03-16T22:47:46.511Z,2.50
2018-03-16T22:48:46.518Z,2.30
2018-03-16T22:49:46.525Z,2.30
2018-03-16T22:50:46.533Z,2.50
2018-03-16T22:51:46.539Z,2.50
2018-03-16T22:52:46.548Z,2.50
2018-03-16T22:53:46.554Z,2.50
2018-03-16T22:54:46.562Z,2.50
2018-03-16T22:55:46.569Z,2.40
2018-03-16T22:56:46.618Z,2.20
2018-03-16T22:57:46.583Z,2.20
2018-03-16T22:58:46.592Z,2.20
2018-03-16T22:59:46.598Z,2.30
2018-03-16T23:00:46.606Z,2.50
2018-03-16T23:01:46.610Z,2.20
2018-03-16T23:02:46.618Z,2.30
2018-03-16T23:03:46.627Z,2.30
2018-03-16T23:04:46.634Z,2.10
2018-03-16T23:05:46.639Z,2.70
2018-03-16T23:06:46.648Z,2.40
2018-03-16T23:07:46.656Z,2.30
2018-03-16T23:08:46.662Z,2.30
2018-03-16T23:09:46.670Z,2.50
2018-03-16T23:10:46.678Z,2.30
2018-03-16T23:11:46.685Z,2.50
2018-03-16T23:12:46.691Z,2.30
2018-03-16T23:13:46.700Z,2.20
2018-03-16T23:14:46.707Z,2.30
2018-03-16T23:15:46.713Z,2.10
2018-03-16T23:16:46.784Z,2.20
2018-03-16T23:17:46.725Z,2.30
2018-03-16T23:18:46.733Z,2.30
2018-03-16T23:19:46.741Z,2.30
2018-03-16T23:20:46.752Z,2.30
2018-03-16T23:21:46.756Z,2.10
2018-03-16T23:22:46.761Z,2.20
2018-03-16T23:23:46.770Z,2.40
2018-03-16T23:24:46.778Z,2.20
2018-03-16T23:25:46.782Z,2.60
2018-03-16T23:26:46.791Z,2.20
2018-03-16T23:27:46.797Z,2.40
2018-03-16T23:28:46.807Z,2.50
2018-03-16T23:29:46.810Z,2.40
2018-03-16T23:30:46.817Z,2.50
2018-03-16T23:31:46.826Z,2.20
2018-03-16T23:32:46.835Z,2.30
2018-03-16T23:33:46.838Z,2.30
2018-03-16T23:34:46.846Z,2.20
2018-03-16T23:35:46.853Z,2.30
2018-03-16T23:36:46.861Z,2.30
2018-03-16T23:37:46.867Z,2.10
2018-03-16T23:38:46.875Z,2.30
2018-03-16T23:39:46.882Z,2.60
2018-03-16T23:40:46.888Z,2.20
2018-03-16T23:41:46.928Z,2.20
2018-03-16T23:42:46.902Z,2.10
2018-03-16T23:43:46.911Z,2.30
2018-03-16T23:44:46.916Z,2.20
2018-03-16T23:45:46.923Z,2.20
2018-03-16T23:46:46.930Z,2.40
2018-03-16T23:47:46.943Z,2.10
2018-03-16T23:48:46.944Z,2.30
2018-03-16T23:49:46.950Z,2.00
2018-03-16T23:50:46.959Z,2.30
2018-03-16T23:51:46.965Z,2.00
2018-03-16T23:52:46.971Z,2.20
2018-03-16T23:53:46.985Z,2.30
2018-03-16T23:54:46.986Z,2.10
2018-03-16T23:55:46.994Z,2.20
2018-03-16T23:56:47.006Z,2.00
2018-03-16T23:57:47.012Z,2.20
2018-03-16T23:58:47.014Z,2.00
2018-03-16T23:59:47.021Z,2.20
